Time;durP1;ratioP1;P1;durP2;ratioP2;P2;SDS_P1;SDS_P2;PMS_P1;PMS_P2;Temp;Humidity;BMP_temperature;BMP_pressure;BME280_temperature;BME280_humidity;BME280_pressure;Samples;Min_cycle;Max_cycle;Signal;HPM_P1;HPM_P2
2023/12/13 00:01:04;;;;;;;;;;;;;;;17.83;64.36;100757.13;7392259;19;1355;-44
2023/12/13 00:03:33;;;;;;;;;;;;;;;18.07;63.47;100753.38;7390931;19;1911;-49
2023/12/13 00:06:01;;;;;;;;;;;;;;;18.25;62.94;100745.63;7391406;19;1410;-44
2023/12/13 00:08:29;;;;;;;;;;;;;;;18.38;62.47;100759.66;7389976;19;1555;-44
2023/12/13 00:10:59;;;;;;;;;;;;;;;18.45;62.39;100762.63;7389419;19;1936;-44
2023/12/13 00:13:28;;;;;;;;;;;;;;;18.49;62.23;100769.44;7391541;19;1137;-44
2023/12/13 00:15:56;;;;;;;;;;;;;;;18.52;61.98;100745.03;7388538;19;1377;-44
2023/12/13 00:18:27;;;;;;;;;;;;;;;18.28;62.70;100748.00;7389639;19;1870;-45
2023/12/13 00:20:55;;;;;;;;;;;;;;;17.92;63.40;100754.66;7390384;19;1155;-44
2023/12/13 00:23:24;;;;;;;;;;;;;;;17.68;63.90;100737.81;7390518;19;1368;-44
2023/12/13 00:25:52;;;;;;;;;;;;;;;17.57;64.16;100747.72;7389832;19;1151;-44
2023/12/13 00:28:21;;;;;;;;;;;;;;;17.45;64.68;100734.38;7391168;19;1101;-44
2023/12/13 00:30:49;;;;;;;;;;;;;;;17.36;64.88;100747.66;7389838;19;1590;-44
2023/12/13 00:33:17;;;;;;;;;;;;;;;17.27;65.02;100743.91;7390434;19;1549;-44
2023/12/13 00:35:48;;;;;;;;;;;;;;;17.52;64.56;100747.25;7389627;19;1326;-44
2023/12/13 00:38:16;;;;;;;;;;;;;;;17.79;64.10;100734.25;7389523;19;1850;-44
2023/12/13 00:40:45;;;;;;;;;;;;;;;18.05;63.12;100715.19;7390196;19;1097;-45
2023/12/13 00:43:13;;;;;;;;;;;;;;;18.28;62.49;100719.44;7375328;19;1700;-44
2023/12/13 00:45:41;;;;;;;;;;;;;;;18.38;62.06;100740.03;7389768;19;1422;-44
2023/12/13 00:48:10;;;;;;;;;;;;;;;18.43;61.94;100724.44;7390391;19;1555;-44
2023/12/13 00:50:38;;;;;;;;;;;;;;;18.48;61.87;100736.44;7388751;19;1164;-43
2023/12/13 00:53:09;;;;;;;;;;;;;;;18.45;61.64;100733.19;7389427;19;1393;-44
2023/12/13 00:55:37;;;;;;;;;;;;;;;18.45;61.74;100717.13;7388991;19;1443;-44
2023/12/13 00:58:06;;;;;;;;;;;;;;;18.17;62.50;100700.75;7389100;19;1878;-44
2023/12/13 01:00:34;;;;;;;;;;;;;;;17.84;63.01;100716.00;7389668;19;1577;-44
2023/12/13 01:03:03;;;;;;;;;;;;;;;17.66;63.61;100690.78;7389442;19;1492;-44
2023/12/13 01:05:31;;;;;;;;;;;;;;;17.53;64.13;100703.47;7390182;19;1416;-45
2023/12/13 01:07:59;;;;;;;;;;;;;;;17.41;64.42;100694.69;7389852;19;1408;-45
2023/12/13 01:10:30;;;;;;;;;;;;;;;17.33;64.48;100697.09;7388168;19;2349;-44
2023/12/13 01:13:00;;;;;;;;;;;;;;;17.18;64.75;100685.88;7389750;19;1576;-47
2023/12/13 01:15:28;;;;;;;;;;;;;;;17.47;64.47;100691.50;7389688;19;1160;-44
2023/12/13 01:17:56;;;;;;;;;;;;;;;17.73;63.69;100694.66;7388843;19;1843;-44
2023/12/13 01:20:25;;;;;;;;;;;;;;;18.09;62.74;100701.41;7389716;19;1940;-44
2023/12/13 01:22:53;;;;;;;;;;;;;;;18.26;62.39;100699.09;7388468;19;1752;-44
2023/12/13 01:25:21;;;;;;;;;;;;;;;18.34;61.98;100685.06;7388679;19;1235;-44
2023/12/13 01:27:54;;;;;;;;;;;;;;;18.32;61.78;100687.88;7393940;19;1410;-44
2023/12/13 01:30:22;;;;;;;;;;;;;;;18.32;61.94;100692.38;7395588;19;1192;-44
2023/12/13 01:32:51;;;;;;;;;;;;;;;18.36;62.03;100685.78;7395778;19;1427;-44
2023/12/13 01:35:20;;;;;;;;;;;;;;;18.40;61.58;100671.16;7395077;19;1394;-44
2023/12/13 01:37:49;;;;;;;;;;;;;;;18.46;61.52;100678.63;7394936;19;1859;-44
2023/12/13 01:40:17;;;;;;;;;;;;;;;18.44;61.52;100670.75;7397540;19;1224;-44
2023/12/13 01:42:45;;;;;;;;;;;;;;;18.48;61.24;100657.94;7380568;19;1187;-44
2023/12/13 01:45:16;;;;;;;;;;;;;;;18.51;61.27;100672.91;7395217;19;1164;-44
2023/12/13 01:47:45;;;;;;;;;;;;;;;18.36;61.56;100669.72;7395211;19;1125;-44
2023/12/13 01:50:13;;;;;;;;;;;;;;;18.00;62.37;100674.59;7396311;19;1535;-45
2023/12/13 01:52:42;;;;;;;;;;;;;;;17.78;62.91;100662.16;7394744;19;1470;-45
2023/12/13 01:55:10;;;;;;;;;;;;;;;17.59;63.17;100652.19;7395276;19;1439;-44
2023/12/13 01:57:39;;;;;;;;;;;;;;;17.44;63.68;100639.09;7394872;19;1861;-44
2023/12/13 02:00:08;;;;;;;;;;;;;;;17.49;63.61;100652.94;7394374;19;1451;-44
2023/12/13 02:02:40;;;;;;;;;;;;;;;17.39;63.86;100651.16;7395598;19;1247;-44
2023/12/13 02:05:10;;;;;;;;;;;;;;;17.30;64.28;100650.09;7394936;19;1850;-44
2023/12/13 02:07:39;;;;;;;;;;;;;;;17.46;63.84;100639.81;7395485;19;1766;-44
2023/12/13 02:10:08;;;;;;;;;;;;;;;17.71;63.57;100643.13;7394984;19;1306;-44
2023/12/13 02:12:37;;;;;;;;;;;;;;;17.95;62.59;100642.06;7395109;19;1634;-44
2023/12/13 02:15:06;;;;;;;;;;;;;;;18.21;61.87;100629.94;7394948;19;1377;-44
2023/12/13 02:17:34;;;;;;;;;;;;;;;18.26;61.65;100634.88;7395252;19;1345;-44
2023/12/13 02:20:06;;;;;;;;;;;;;;;18.37;61.16;100637.47;7392348;19;1854;-44
2023/12/13 02:22:37;;;;;;;;;;;;;;;18.34;61.15;100635.03;7395090;19;1364;-44
2023/12/13 02:25:07;;;;;;;;;;;;;;;18.32;61.46;100636.16;7393862;19;1121;-44
2023/12/13 02:27:35;;;;;;;;;;;;;;;18.38;61.16;100632.94;7395711;19;1144;-45
2023/12/13 02:30:04;;;;;;;;;;;;;;;18.47;60.80;100632.16;7394669;19;1623;-44
2023/12/13 02:32:32;;;;;;;;;;;;;;;18.77;60.32;100627.72;7394591;19;1431;-44
2023/12/13 02:35:01;;;;;;;;;;;;;;;19.25;59.10;100626.97;7394162;19;1479;-43
2023/12/13 02:37:29;;;;;;;;;;;;;;;19.74;57.75;100630.53;7394009;19;1193;-44
2023/12/13 02:40:03;;;;;;;;;;;;;;;19.67;58.14;100621.31;7390372;19;1839;-44
2023/12/13 02:42:31;;;;;;;;;;;;;;;19.06;58.60;100531.34;7379162;19;1156;-43
2023/12/13 02:44:59;;;;;;;;;;;;;;;19.52;58.25;100606.63;7394158;19;1536;-44
2023/12/13 02:47:28;;;;;;;;;;;;;;;19.44;58.63;100610.06;7394946;19;1141;-44
2023/12/13 02:49:56;;;;;;;;;;;;;;;19.35;58.83;100601.00;7393969;19;1810;-44
2023/12/13 02:52:24;;;;;;;;;;;;;;;19.35;58.80;100587.59;7391408;19;2376;-43
2023/12/13 02:54:53;;;;;;;;;;;;;;;19.55;58.51;100601.00;7393208;19;1983;-43
2023/12/13 02:57:23;;;;;;;;;;;;;;;19.56;58.28;100602.72;7394052;19;1442;-44
2023/12/13 02:59:52;;;;;;;;;;;;;;;19.53;58.38;100592.25;7391627;19;1963;-44
2023/12/13 03:02:20;;;;;;;;;;;;;;;19.51;58.60;100604.97;7393451;19;1109;-44
2023/12/13 03:04:48;;;;;;;;;;;;;;;19.28;59.00;100592.69;7393338;19;1326;-44
2023/12/13 03:07:17;;;;;;;;;;;;;;;18.67;60.21;100600.91;7393346;19;1458;-44
2023/12/13 03:09:45;;;;;;;;;;;;;;;18.24;61.21;100594.00;7392314;19;1531;-43
2023/12/13 03:12:13;;;;;;;;;;;;;;;17.95;62.08;100588.53;7392943;19;1200;-44
2023/12/13 03:14:44;;;;;;;;;;;;;;;17.80;62.52;100586.16;7393157;19;1425;-44
2023/12/13 03:17:12;;;;;;;;;;;;;;;17.80;62.47;100586.16;7393019;19;2046;-44
2023/12/13 03:19:41;;;;;;;;;;;;;;;18.52;60.95;100597.75;7391087;19;1869;-44
2023/12/13 03:22:09;;;;;;;;;;;;;;;19.32;59.23;100579.88;7393012;19;1129;-44
2023/12/13 03:24:38;;;;;;;;;;;;;;;19.63;58.18;100582.34;7392543;19;1438;-47
2023/12/13 03:27:06;;;;;;;;;;;;;;;19.56;58.33;100586.63;7391508;19;1157;-44
2023/12/13 03:29:35;;;;;;;;;;;;;;;19.43;58.61;100571.66;7392370;19;1486;-44
2023/12/13 03:32:06;;;;;;;;;;;;;;;19.27;59.15;100566.03;7392575;19;1392;-44
2023/12/13 03:34:34;;;;;;;;;;;;;;;19.43;58.70;100560.91;7391999;19;1149;-44
2023/12/13 03:37:06;;;;;;;;;;;;;;;19.55;58.07;100550.03;7391264;19;1780;-44
2023/12/13 03:39:34;;;;;;;;;;;;;;;19.58;58.16;100533.66;7391016;19;1855;-44
2023/12/13 03:42:03;;;;;;;;;;;;;;;19.60;58.01;100553.16;7391463;19;1129;-44
2023/12/13 03:44:31;;;;;;;;;;;;;;;19.51;58.50;100535.22;7376309;19;1409;-44
2023/12/13 03:46:59;;;;;;;;;;;;;;;19.45;58.57;100531.28;7391629;19;1391;-44
2023/12/13 03:49:30;;;;;;;;;;;;;;;19.50;58.56;100525.47;7392340;19;1109;-44
2023/12/13 03:51:59;;;;;;;;;;;;;;;19.58;58.38;100539.03;7392332;19;1453;-43
2023/12/13 03:54:27;;;;;;;;;;;;;;;19.62;58.33;100553.84;7391316;19;1723;-44
2023/12/13 03:56:55;;;;;;;;;;;;;;;19.57;58.40;100521.25;7391046;19;1423;-47
2023/12/13 03:59:24;;;;;;;;;;;;;;;19.61;58.27;100541.41;7390295;19;1866;-44
2023/12/13 04:01:52;;;;;;;;;;;;;;;19.05;59.39;100524.28;7390640;19;1095;-44
2023/12/13 04:04:20;;;;;;;;;;;;;;;18.60;60.68;100538.16;7390716;19;1200;-44
2023/12/13 04:06:51;;;;;;;;;;;;;;;18.29;61.26;100532.91;7390144;19;1943;-43
2023/12/13 04:09:19;;;;;;;;;;;;;;;18.19;61.49;100542.72;7390696;19;1408;-44
2023/12/13 04:11:48;;;;;;;;;;;;;;;18.34;61.40;100540.50;7391018;19;1136;-44
2023/12/13 04:14:16;;;;;;;;;;;;;;;18.58;60.87;100541.00;7390362;19;1212;-44
2023/12/13 04:16:45;;;;;;;;;;;;;;;18.80;60.17;100556.00;7390439;19;1415;-44
2023/12/13 04:19:13;;;;;;;;;;;;;;;18.95;59.68;100561.78;7390588;19;1853;-44
2023/12/13 04:21:41;;;;;;;;;;;;;;;18.92;59.80;100563.91;7391241;19;1191;-44
2023/12/13 04:24:12;;;;;;;;;;;;;;;18.96;59.60;100558.13;7390943;19;1133;-44
2023/12/13 04:26:41;;;;;;;;;;;;;;;18.84;59.63;100560.09;7391034;19;1623;-44
2023/12/13 04:29:09;;;;;;;;;;;;;;;18.88;59.78;100556.16;7391284;19;1393;-44
2023/12/13 04:31:38;;;;;;;;;;;;;;;18.92;59.55;100555.84;7390357;19;1951;-44
2023/12/13 04:34:06;;;;;;;;;;;;;;;18.87;59.65;100540.22;7391543;19;1121;-44
2023/12/13 04:36:34;;;;;;;;;;;;;;;18.84;59.72;100535.13;7390838;19;1833;-44
2023/12/13 04:39:03;;;;;;;;;;;;;;;18.82;59.95;100519.22;7390262;19;1849;-44
2023/12/13 04:41:37;;;;;;;;;;;;;;;18.82;59.62;100507.63;7391888;19;1410;-44
2023/12/13 04:44:07;;;;;;;;;;;;;;;18.93;59.33;100512.84;7378109;19;1427;-45
2023/12/13 04:46:36;;;;;;;;;;;;;;;18.98;59.12;100505.25;7392372;19;1177;-44
2023/12/13 04:49:04;;;;;;;;;;;;;;;19.06;59.08;100505.38;7391661;19;1804;-44
2023/12/13 04:51:32;;;;;;;;;;;;;;;18.97;59.07;100490.16;7389887;19;1165;-43
2023/12/13 04:54:00;;;;;;;;;;;;;;;19.06;59.09;100491.16;7390247;19;1535;-44
2023/12/13 04:56:30;;;;;;;;;;;;;;;19.23;58.88;100498.44;7388172;19;1680;-44
2023/12/13 04:59:01;;;;;;;;;;;;;;;19.12;59.06;100487.91;7389741;19;1834;-45
2023/12/13 05:01:29;;;;;;;;;;;;;;;19.05;58.80;100490.28;7390620;19;1523;-44
2023/12/13 05:03:57;;;;;;;;;;;;;;;19.03;59.04;100494.94;7397022;19;1521;-44
2023/12/13 05:06:26;;;;;;;;;;;;;;;19.07;58.89;100495.50;7398632;19;1207;-44
2023/12/13 05:08:54;;;;;;;;;;;;;;;19.13;58.98;100505.66;7392973;19;1160;-44
2023/12/13 05:11:22;;;;;;;;;;;;;;;19.07;58.83;100499.03;7393921;19;1362;-43
2023/12/13 05:13:51;;;;;;;;;;;;;;;19.06;58.90;100499.19;7395513;19;1397;-44
2023/12/13 05:16:22;;;;;;;;;;;;;;;19.02;58.91;100503.97;7397716;19;1211;-44
2023/12/13 05:18:50;;;;;;;;;;;;;;;18.83;59.50;100509.34;7396764;19;1843;-44
2023/12/13 05:21:18;;;;;;;;;;;;;;;18.71;59.91;100499.72;7394790;19;1492;-44
2023/12/13 05:23:47;;;;;;;;;;;;;;;18.87;59.48;100521.47;7396188;19;1559;-44
2023/12/13 05:26:15;;;;;;;;;;;;;;;18.80;59.42;100510.47;7396245;19;1212;-44
2023/12/13 05:28:43;;;;;;;;;;;;;;;18.90;58.92;100505.13;7394920;19;2079;-44
2023/12/13 05:31:22;;;;;;;;;;;;;;;18.89;59.22;100500.72;7395106;19;1844;-45
2023/12/13 05:33:51;;;;;;;;;;;;;;;18.91;59.09;100511.31;7395102;19;1600;-44
2023/12/13 05:36:20;;;;;;;;;;;;;;;18.77;59.32;100509.88;7396203;19;1475;-44
2023/12/13 05:38:48;;;;;;;;;;;;;;;18.83;59.34;100501.28;7395955;19;1415;-44
2023/12/13 05:41:16;;;;;;;;;;;;;;;18.81;59.18;100495.22;7397186;19;1323;-44
2023/12/13 05:43:45;;;;;;;;;;;;;;;18.83;59.21;100491.41;7380134;19;1141;-43
2023/12/13 05:46:13;;;;;;;;;;;;;;;18.78;59.44;100474.03;7393803;19;1329;-44
2023/12/13 05:48:44;;;;;;;;;;;;;;;18.76;58.96;100478.69;7394984;19;1386;-44
2023/12/13 05:51:12;;;;;;;;;;;;;;;18.82;58.76;100467.44;7395250;19;1549;-45
2023/12/13 05:53:40;;;;;;;;;;;;;;;18.71;59.02;100468.41;7395945;19;1225;-44
2023/12/13 05:56:09;;;;;;;;;;;;;;;18.32;59.33;100465.69;7396087;19;1193;-44
2023/12/13 05:58:38;;;;;;;;;;;;;;;18.07;59.96;100469.72;7395999;19;1550;-44
2023/12/13 06:01:06;;;;;;;;;;;;;;;17.62;59.01;100470.09;7391576;19;1847;-44
2023/12/13 06:03:35;;;;;;;;;;;;;;;17.36;60.65;100473.19;7392530;19;1232;-44
2023/12/13 06:06:06;;;;;;;;;;;;;;;17.31;60.87;100478.09;7396086;19;967;-44
2023/12/13 06:08:35;;;;;;;;;;;;;;;17.42;60.67;100472.66;7395783;19;1094;-43
2023/12/13 06:11:03;;;;;;;;;;;;;;;18.01;59.52;100454.22;7396305;19;1480;-43
2023/12/13 06:13:31;;;;;;;;;;;;;;;18.44;58.50;100461.06;7395657;19;1559;-44
2023/12/13 06:15:59;;;;;;;;;;;;;;;18.40;58.37;100447.13;7395336;19;1224;-44
2023/12/13 06:18:28;;;;;;;;;;;;;;;18.11;58.87;100462.28;7396720;19;1173;-44
2023/12/13 06:20:56;;;;;;;;;;;;;;;17.85;59.82;100442.22;7388331;19;1849;-43
2023/12/13 06:23:27;;;;;;;;;;;;;;;17.65;60.04;100453.78;7386503;19;1561;-46
2023/12/13 06:25:56;;;;;;;;;;;;;;;17.83;59.71;100430.78;7393975;19;1471;-46
2023/12/13 06:28:24;;;;;;;;;;;;;;;18.09;59.40;100436.50;7394398;19;1507;-46
2023/12/13 06:30:52;;;;;;;;;;;;;;;18.43;58.52;100437.97;7393235;19;1023;-46
2023/12/13 06:33:21;;;;;;;;;;;;;;;18.48;58.25;100430.34;7392813;19;1112;-46
2023/12/13 06:35:49;;;;;;;;;;;;;;;18.43;58.21;100419.22;7392845;19;1153;-45
2023/12/13 06:38:17;;;;;;;;;;;;;;;18.50;58.19;100423.00;7393290;19;1496;-46
2023/12/13 06:40:48;;;;;;;;;;;;;;;18.43;58.49;100419.22;7390989;19;1890;-46
2023/12/13 06:43:16;;;;;;;;;;;;;;;18.45;58.42;100425.28;7383476;19;1232;-44
2023/12/13 06:45:45;;;;;;;;;;;;;;;18.47;58.58;100426.81;7383460;19;1420;-44
2023/12/13 06:48:13;;;;;;;;;;;;;;;18.49;58.71;100419.50;7391209;19;1532;-44
2023/12/13 06:50:41;;;;;;;;;;;;;;;18.59;58.26;100399.91;7390212;19;1215;-44
2023/12/13 06:53:10;;;;;;;;;;;;;;;18.73;58.15;100422.75;7391000;19;1196;-44
2023/12/13 06:55:39;;;;;;;;;;;;;;;18.80;57.67;100415.84;7391263;19;1469;-44
2023/12/13 06:58:10;;;;;;;;;;;;;;;18.85;57.55;100403.72;7390512;19;1225;-44
2023/12/13 07:00:38;;;;;;;;;;;;;;;18.92;57.26;100405.81;7390721;19;1847;-44
2023/12/13 07:03:06;;;;;;;;;;;;;;;18.93;57.40;100396.81;7391754;19;1548;-44
2023/12/13 07:05:34;;;;;;;;;;;;;;;18.97;56.97;100391.00;7388658;19;1374;-43
2023/12/13 07:08:03;;;;;;;;;;;;;;;18.96;56.87;100385.78;7389507;19;1386;-44
2023/12/13 07:10:31;;;;;;;;;;;;;;;18.91;57.22;100394.25;7389738;19;1218;-44
2023/12/13 07:12:59;;;;;;;;;;;;;;;18.85;57.39;100400.19;7391105;19;1397;-44
2023/12/13 07:15:30;;;;;;;;;;;;;;;18.54;58.21;100386.94;7392271;19;1097;-43
2023/12/13 07:17:59;;;;;;;;;;;;;;;18.16;59.11;100399.31;7393574;19;1199;-44
2023/12/13 07:20:27;;;;;;;;;;;;;;;17.91;59.62;100407.88;7389052;19;1877;-44
2023/12/13 07:22:55;;;;;;;;;;;;;;;17.78;59.73;100422.28;7389862;19;1499;-44
2023/12/13 07:25:24;;;;;;;;;;;;;;;18.08;59.27;100433.94;7390202;19;1191;-44
2023/12/13 07:27:52;;;;;;;;;;;;;;;18.53;57.98;100433.44;7391996;19;1210;-44
2023/12/13 07:30:23;;;;;;;;;;;;;;;18.94;56.97;100415.41;7393462;19;1429;-43
2023/12/13 07:32:54;;;;;;;;;;;;;;;18.99;56.79;100391.69;7388907;19;1219;-44
2023/12/13 07:35:23;;;;;;;;;;;;;;;18.67;57.55;100411.59;7389273;19;1481;-44
2023/12/13 07:37:52;;;;;;;;;;;;;;;18.22;58.71;100404.13;7388764;19;1634;-44
2023/12/13 07:40:20;;;;;;;;;;;;;;;17.89;59.68;100376.75;7388711;19;1846;-44
2023/12/13 07:42:48;;;;;;;;;;;;;;;17.76;59.98;100375.28;7388005;19;1269;-44
2023/12/13 07:45:16;;;;;;;;;;;;;;;18.09;59.35;100356.22;7373931;19;1500;-43
2023/12/13 07:47:46;;;;;;;;;;;;;;;18.64;57.76;100349.44;7391511;19;1548;-44
2023/12/13 07:50:17;;;;;;;;;;;;;;;18.86;57.20;100341.13;7392406;19;1626;-44
2023/12/13 07:52:45;;;;;;;;;;;;;;;18.68;57.31;100341.00;7392810;19;1504;-43
2023/12/13 07:55:18;;;;;;;;;;;;;;;18.25;58.66;100339.59;7392498;19;1583;-44
2023/12/13 07:57:46;;;;;;;;;;;;;;;17.95;59.16;100326.38;7392487;19;1215;-44
2023/12/13 08:00:15;;;;;;;;;;;;;;;17.73;59.83;100311.38;7392054;19;1847;-44
2023/12/13 08:02:43;;;;;;;;;;;;;;;18.00;59.16;100289.31;7392352;19;1081;-44
2023/12/13 08:05:13;;;;;;;;;;;;;;;18.47;58.27;100300.16;7392934;19;1863;-44
2023/12/13 08:07:44;;;;;;;;;;;;;;;18.90;57.20;100312.22;7391594;19;1410;-44
2023/12/13 08:10:12;;;;;;;;;;;;;;;19.01;56.92;100300.44;7392159;19;1477;-44
2023/12/13 08:12:43;;;;;;;;;;;;;;;18.83;57.45;100295.84;7392038;19;1101;-44
2023/12/13 08:15:11;;;;;;;;;;;;;;;18.39;58.29;100313.41;7392089;19;1125;-43
2023/12/13 08:17:40;;;;;;;;;;;;;;;18.00;59.10;100310.72;7391676;19;1164;-43
2023/12/13 08:20:09;;;;;;;;;;;;;;;17.77;59.75;100323.50;7391763;19;1875;-44
2023/12/13 08:22:37;;;;;;;;;;;;;;;17.91;59.48;100327.63;7392655;19;1477;-44
2023/12/13 08:25:09;;;;;;;;;;;;;;;18.50;58.11;100331.97;7392424;19;1271;-43
2023/12/13 08:27:37;;;;;;;;;;;;;;;18.82;57.37;100346.88;7391118;19;1302;-44
2023/12/13 08:30:06;;;;;;;;;;;;;;;18.93;57.13;100337.84;7391868;19;1598;-44
2023/12/13 08:32:34;;;;;;;;;;;;;;;18.63;57.76;100361.97;7391723;19;1583;-44
2023/12/13 08:35:04;;;;;;;;;;;;;;;18.17;58.57;100346.66;7392137;19;1222;-44
2023/12/13 08:37:32;;;;;;;;;;;;;;;17.83;59.55;100339.84;7394511;19;1338;-43
2023/12/13 08:40:00;;;;;;;;;;;;;;;17.78;59.80;100342.06;7397419;19;1876;-44
2023/12/13 08:42:31;;;;;;;;;;;;;;;18.06;59.33;100347.63;7398673;19;1180;-44
2023/12/13 08:45:00;;;;;;;;;;;;;;;18.74;57.73;100333.34;7383477;19;1240;-44
2023/12/13 08:47:28;;;;;;;;;;;;;;;18.65;57.87;100332.38;7400029;19;1014;-44
2023/12/13 08:49:57;;;;;;;;;;;;;;;18.22;58.71;100313.13;7398508;19;1465;-44
2023/12/13 08:52:25;;;;;;;;;;;;;;;17.91;59.55;100307.06;7398690;19;1681;-43
2023/12/13 08:54:54;;;;;;;;;;;;;;;17.76;59.90;100289.69;7398419;19;1145;-44
2023/12/13 08:57:22;;;;;;;;;;;;;;;18.15;59.19;100277.22;7397644;19;1572;-43
2023/12/13 08:59:53;;;;;;;;;;;;;;;18.75;57.45;100257.38;7398291;19;1571;-44
2023/12/13 09:02:21;;;;;;;;;;;;;;;18.61;57.74;100235.41;7396292;19;1849;-44
2023/12/13 09:04:50;;;;;;;;;;;;;;;18.22;58.71;100240.00;7397614;19;1569;-44
2023/12/13 09:07:18;;;;;;;;;;;;;;;17.92;59.28;100227.66;7397123;19;1138;-44
2023/12/13 09:09:46;;;;;;;;;;;;;;;17.76;59.80;100214.81;7397754;19;1625;-44
2023/12/13 09:12:15;;;;;;;;;;;;;;;18.14;59.06;100200.59;7397700;19;1599;-44
2023/12/13 09:14:44;;;;;;;;;;;;;;;18.53;58.02;100189.78;7393866;19;1489;-44
2023/12/13 09:17:15;;;;;;;;;;;;;;;18.79;56.97;100173.06;7395813;19;1434;-44
2023/12/13 09:19:43;;;;;;;;;;;;;;;18.38;57.99;100167.16;7394553;19;2544;-44
2023/12/13 09:22:12;;;;;;;;;;;;;;;18.00;58.81;100201.03;7391285;19;1903;-44
2023/12/13 09:24:41;;;;;;;;;;;;;;;17.79;59.42;100199.34;7395430;19;1448;-44
2023/12/13 09:27:09;;;;;;;;;;;;;;;17.99;59.50;100204.72;7396611;19;1496;-44
2023/12/13 09:29:37;;;;;;;;;;;;;;;18.66;57.70;100195.66;7394096;19;1402;-44
2023/12/13 09:32:06;;;;;;;;;;;;;;;18.96;57.14;100199.09;7393839;19;1191;-43
2023/12/13 09:34:37;;;;;;;;;;;;;;;19.15;57.19;100197.28;7396394;19;1305;-44
2023/12/13 09:37:06;;;;;;;;;;;;;;;18.68;57.70;100198.16;7395968;19;1365;-44
2023/12/13 09:39:34;;;;;;;;;;;;;;;18.24;59.19;100206.78;7395405;19;1197;-44
2023/12/13 09:42:00;;;;;;;;;;;;;;;17.99;60.00;100204.72;7392835;19;1869;-43
2023/12/13 09:44:29;;;;;;;;;;;;;;;17.87;60.32;100212.03;7379379;19;1180;-42
2023/12/13 09:46:58;;;;;;;;;;;;;;;18.47;59.06;100198.41;7395109;19;1532;-43
2023/12/13 09:49:27;;;;;;;;;;;;;;;18.97;57.60;100192.72;7394320;19;1113;-44
2023/12/13 09:52:00;;;;;;;;;;;;;;;19.08;57.24;100170.25;7395775;19;1319;-44
2023/12/13 09:54:28;;;;;;;;;;;;;;;18.78;58.37;100208.84;7394583;19;1502;-44
2023/12/13 09:56:56;;;;;;;;;;;;;;;18.43;59.48;100192.50;7394827;19;1395;-44
2023/12/13 09:59:26;;;;;;;;;;;;;;;18.28;59.88;100189.44;7394390;19;1348;-44
2023/12/13 10:01:54;;;;;;;;;;;;;;;18.22;60.16;100173.97;7391688;19;1857;-44
2023/12/13 10:04:23;;;;;;;;;;;;;;;18.12;60.35;100167.78;7392697;19;1443;-44
2023/12/13 10:06:51;;;;;;;;;;;;;;;18.06;60.75;100137.13;7380330;19;1492;-44
2023/12/13 10:09:22;;;;;;;;;;;;;;;18.13;60.39;100160.63;7389321;19;1413;-44
2023/12/13 10:11:50;;;;;;;;;;;;;;;18.05;60.90;100139.94;7390147;19;1526;-43
2023/12/13 10:14:18;;;;;;;;;;;;;;;18.25;60.49;100128.16;7393671;19;1254;-44
2023/12/13 10:16:47;;;;;;;;;;;;;;;18.87;59.19;100115.06;7393552;19;1969;-53
2023/12/13 10:19:16;;;;;;;;;;;;;;;19.07;58.66;100131.03;7388990;19;1381;-44
2023/12/13 10:21:46;;;;;;;;;;;;;;;18.90;59.03;100139.88;7389199;19;1852;-44
2023/12/13 10:24:15;;;;;;;;;;;;;;;18.57;59.86;100151.00;7391204;19;1239;-43
2023/12/13 10:26:46;;;;;;;;;;;;;;;18.44;60.44;100146.00;7392237;19;1564;-43
2023/12/13 10:29:15;;;;;;;;;;;;;;;18.29;61.10;100134.91;7390270;19;1531;-44
2023/12/13 10:31:43;;;;;;;;;;;;;;;18.22;61.26;100133.84;7391970;19;1132;-44
2023/12/13 10:34:11;;;;;;;;;;;;;;;18.14;61.43;100128.34;7393484;19;1212;-44
2023/12/13 10:36:42;;;;;;;;;;;;;;;18.07;61.94;100117.38;7392916;19;1130;-43
2023/12/13 10:39:14;;;;;;;;;;;;;;;18.03;62.07;100120.50;7389471;19;1439;-44
2023/12/13 10:41:44;;;;;;;;;;;;;;;18.55;60.86;100109.31;7390772;19;1851;-43
2023/12/13 10:44:18;;;;;;;;;;;;;;;18.96;59.90;100101.75;7385479;19;1142;-43
2023/12/13 10:46:48;;;;;;;;;;;;;;;18.87;60.30;100095.50;7374392;19;1225;-43
2023/12/13 10:49:18;;;;;;;;;;;;;;;18.58;61.48;100091.13;7386395;19;1112;-44
2023/12/13 10:51:46;;;;;;;;;;;;;;;18.35;62.38;100103.22;7390625;19;1515;-44
2023/12/13 10:54:15;;;;;;;;;;;;;;;18.20;62.87;100084.94;7392533;19;1183;-44
2023/12/13 10:56:44;;;;;;;;;;;;;;;18.07;63.60;100084.44;7392627;19;1598;-44
2023/12/13 10:59:15;;;;;;;;;;;;;;;18.03;63.85;100065.16;7387569;19;1168;-44
2023/12/13 11:01:45;;;;;;;;;;;;;;;18.04;64.41;100079.38;7389527;19;1854;-45
2023/12/13 11:04:16;;;;;;;;;;;;;;;18.01;64.57;100056.44;7389983;19;1238;-45
2023/12/13 11:06:46;;;;;;;;;;;;;;;17.97;64.54;100060.38;7391457;19;1191;-45
2023/12/13 11:09:17;;;;;;;;;;;;;;;18.45;62.79;100037.91;7389876;19;1394;-44
2023/12/13 11:11:45;;;;;;;;;;;;;;;18.84;61.55;100056.47;7390338;19;1187;-44
2023/12/13 11:14:20;;;;;;;;;;;;;;;19.04;61.48;100051.78;7389022;19;1545;-47
2023/12/13 11:16:48;;;;;;;;;;;;;;;18.75;62.43;100062.69;7389306;19;1397;-47
2023/12/13 11:19:19;;;;;;;;;;;;;;;18.45;63.54;100039.75;7389715;19;1412;-47
2023/12/13 11:21:49;;;;;;;;;;;;;;;18.23;64.02;100041.00;7388669;19;1846;-47
2023/12/13 11:24:22;;;;;;;;;;;;;;;18.11;64.49;100037.66;7391203;19;1392;-46
2023/12/13 11:26:52;;;;;;;;;;;;;;;18.04;64.43;100040.06;7388842;19;1224;-46
2023/12/13 11:29:24;;;;;;;;;;;;;;;18.47;63.31;100035.09;7387988;19;1509;-46
2023/12/13 11:31:53;;;;;;;;;;;;;;;18.80;62.09;100028.28;7388449;19;1437;-46
2023/12/13 11:34:33;;;;;;;;;;;;;;;18.66;62.20;100037.66;7389215;19;1411;-47
2023/12/13 11:37:02;;;;;;;;;;;;;;;18.44;62.69;100046.09;7390567;19;1197;-47
2023/12/13 11:39:30;;;;;;;;;;;;;;;18.21;63.42;100033.09;7386931;19;1201;-47
2023/12/13 11:42:00;;;;;;;;;;;;;;;18.00;63.91;100046.69;7383436;19;1846;-45
2023/12/13 11:44:32;;;;;;;;;;;;;;;17.95;64.21;100054.34;7385411;19;1169;-46
2023/12/13 11:47:01;;;;;;;;;;;;;;;18.52;62.76;100046.19;7370557;19;1363;-45
2023/12/13 11:49:29;;;;;;;;;;;;;;;18.86;61.65;100037.53;7383256;19;1347;-44
2023/12/13 11:51:58;;;;;;;;;;;;;;;18.79;61.62;100031.94;7387565;19;1495;-45
2023/12/13 11:54:27;;;;;;;;;;;;;;;18.50;62.46;100037.44;7389816;19;1076;-44
2023/12/13 11:56:55;;;;;;;;;;;;;;;18.19;63.00;100042.28;7390254;19;1806;-45
2023/12/13 11:59:26;;;;;;;;;;;;;;;18.01;63.30;100037.69;7391012;19;1204;-44
2023/12/13 12:01:57;;;;;;;;;;;;;;;17.87;63.70;100046.22;7391527;19;1878;-45
2023/12/13 12:04:26;;;;;;;;;;;;;;;18.98;60.68;100030.97;7392635;19;1245;-45
2023/12/13 12:06:56;;;;;;;;;;;;;;;19.04;60.46;100040.25;7392949;19;1180;-45
2023/12/13 12:09:24;;;;;;;;;;;;;;;18.96;60.60;100022.25;7392984;19;1088;-47
2023/12/13 12:11:55;;;;;;;;;;;;;;;18.55;61.51;100029.81;7390785;19;1357;-45
2023/12/13 12:14:27;;;;;;;;;;;;;;;18.20;62.34;100009.16;7392578;19;1278;-45
2023/12/13 12:16:58;;;;;;;;;;;;;;;18.00;62.87;100011.09;7392492;19;1585;-45
2023/12/13 12:19:28;;;;;;;;;;;;;;;18.01;62.95;99999.41;7393015;19;1188;-45
2023/12/13 12:21:56;;;;;;;;;;;;;;;18.49;61.71;99995.63;7393536;19;1835;-45
2023/12/13 12:24:28;;;;;;;;;;;;;;;18.72;60.39;99989.81;7391676;19;1520;-45
2023/12/13 12:26:57;;;;;;;;;;;;;;;18.88;60.47;100014.13;7392393;19;975;-50
2023/12/13 12:29:25;;;;;;;;;;;;;;;18.52;61.21;100003.34;7393748;19;1217;-45
2023/12/13 12:31:54;;;;;;;;;;;;;;;18.18;62.01;99995.94;7392617;19;1118;-45
2023/12/13 12:34:25;;;;;;;;;;;;;;;17.92;62.57;99992.25;7393042;19;1619;-45
2023/12/13 12:36:53;;;;;;;;;;;;;;;17.92;62.85;99990.44;7394425;19;1224;-44
2023/12/13 12:39:21;;;;;;;;;;;;;;;18.78;60.51;99994.56;7393542;19;1106;-45
2023/12/13 12:41:50;;;;;;;;;;;;;;;18.93;59.90;99979.66;7391578;19;1843;-45
2023/12/13 12:44:18;;;;;;;;;;;;;;;18.92;59.83;99988.72;7391441;19;1584;-45
2023/12/13 12:46:47;;;;;;;;;;;;;;;18.54;60.87;99987.13;7377006;19;993;-45
2023/12/13 12:49:15;;;;;;;;;;;;;;;18.18;61.51;99985.22;7391413;19;1115;-45
2023/12/13 12:51:46;;;;;;;;;;;;;;;17.92;62.32;99986.91;7391038;19;1515;-45
2023/12/13 12:54:14;;;;;;;;;;;;;;;17.78;62.69;99983.69;7390864;19;1386;-45
2023/12/13 12:56:43;;;;;;;;;;;;;;;18.62;60.50;99965.78;7391269;19;1231;-45